Arklow Mill — EIJD9 — position and weather

sailwx.info

Track history (hours):
 
Tides and Currents Weather Stations Pressure Air Temp Water Temp Dewpoint Dewpoint Depression Visibility Wind Speed Wind Dir Waves Ship Positions

Arklow Mill

Last reported at 2016-Aug-24 23:33 UTC. Time now 2016-Aug-25 11:29 UTC.
Position N 36°02' W 005°12'.

Length 137 m; draft 8.4 m.

Type: Ship. MMSI: 250002022.

Date/timePositionNaut miles runAvg speedWind from/ knotsBaromVisibWave heightAir tempDewpointWater temp
2016-Aug-24 23:33N 36°02' W 005°12'1010.3
2016-Aug-24 22:34N 35°58' W 005°24'20711.5
2016-Aug-24 04:32N 36°49' W 009°33'1312.8
2016-Aug-24 03:33N 37°02' W 009°37'1313.3
2016-Aug-24 02:34N 37°14' W 009°39'1413.6
2016-Aug-24 01:34N 37°28' W 009°43'1413.7
2016-Aug-24 00:33N 37°41' W 009°47'1313.3
2016-Aug-23 23:34N 37°54' W 009°51'1413.4
2016-Aug-23 22:33N 38°07' W 009°55'1313.3
2016-Aug-23 21:33N 38°20' W 009°58'1413.8
2016-Aug-23 20:33N 38°33' W 010°03'1313.3
2016-Aug-23 19:33N 38°47' W 010°05'1413.9
2016-Aug-23 18:33N 39°00' W 010°05'1513.4
2016-Aug-23 17:25N 39°16' W 010°06'1213.7
2016-Aug-23 16:33N 39°27' W 010°05'14813.4
2016-Aug-23 05:31N 41°56' W 010°07'12213.1
2016-Aug-22 20:17N 43°55' W 009°39'30312.2
2016-Aug-21 19:33N 48°23' W 006°14'1110.1
2016-Aug-21 18:29N 48°32' W 006°06'11 8.9
2016-Aug-21 17:17N 48°42' W 005°59'9 8.8
2016-Aug-21 16:16N 48°50' W 005°53'6 8.9
2016-Aug-21 15:32N 48°55' W 005°48'1410.3
2016-Aug-21 14:11N 49°01' W 005°29'811.6
2016-Aug-21 13:31N 49°05' W 005°18'7110.1
2016-Aug-21 06:30N 49°41' W 003°45'8 8.6
2016-Aug-21 05:33N 49°45' W 003°34'9 9.5
2016-Aug-21 04:33N 49°50' W 003°22'1110.9
2016-Aug-21 03:33N 49°56' W 003°07'1211.9
2016-Aug-21 02:33N 49°60' W 002°50'94 8.3
2016-Aug-20 15:18N 50°25' W 000°29'911.7
2016-Aug-20 14:33N 50°28' W 000°16'1110.8
2016-Aug-20 13:33N 50°32' E 000°01'10 9.7
2016-Aug-20 12:31N 50°35' E 000°16'9 8.8
2016-Aug-20 11:33N 50°37' E 000°29'28 9.3
2016-Aug-20 08:31N 50°53' E 001°06'1212.5
2016-Aug-20 07:33N 51°01' E 001°20'1212.5
2016-Aug-20 06:33N 51°09' E 001°35'1111.5
2016-Aug-20 05:33N 51°20' E 001°41'9 9.3
2016-Aug-20 04:33N 51°29' E 001°44'9 9.0
2016-Aug-20 03:34N 51°38' E 001°45'9 8.9
2016-Aug-20 02:33N 51°47' E 001°43'9 9.2
2016-Aug-20 01:33N 51°54' E 001°34'9 9.2
2016-Aug-20 00:33N 51°56' E 001°19'7 6.9
2016-Aug-19 23:33N 52°01' E 001°11'2 2.2
2016-Aug-19 22:33N 52°03' E 001°10'0 0.0
2016-Aug-19 21:32N 52°03' E 001°10'0 0.0
2016-Aug-19 20:32N 52°03' E 001°10'0 0.0
2016-Aug-19 19:32N 52°03' E 001°10'0 0.0
2016-Aug-19 18:32N 52°03' E 001°10'0 0.0
2016-Aug-19 17:29N 52°03' E 001°10'0 0.0
2016-Aug-19 16:32N 52°03' E 001°10'0 0.0
2016-Aug-19 15:32N 52°02' E 001°10'0 0.0
2016-Aug-19 14:32N 52°02' E 001°10'0 0.0
2016-Aug-19 13:32N 52°02' E 001°10'0 0.0
2016-Aug-19 12:32N 52°02' E 001°10'0 0.0
2016-Aug-19 11:29N 52°02' E 001°10'0 0.0
2016-Aug-19 10:32N 52°02' E 001°10'0 0.0
2016-Aug-19 09:32N 52°02' E 001°10'0 0.0
2016-Aug-19 08:29N 52°02' E 001°10'0 0.0
2016-Aug-19 07:29N 52°02' E 001°10'0 0.0
2016-Aug-19 06:32N 52°02' E 001°10'0 0.0
2016-Aug-19 05:29N 52°02' E 001°10'0 0.0
2016-Aug-19 04:26N 52°02' E 001°10'0 0.0
2016-Aug-19 03:26N 52°02' E 001°10'0 0.0
2016-Aug-19 02:29N 52°02' E 001°10'0 0.0
2016-Aug-19 01:29N 52°02' E 001°10'0 0.0
2016-Aug-19 00:32N 52°02' E 001°10'0 0.0
2016-Aug-18 23:26N 52°02' E 001°10'0 0.0
2016-Aug-18 22:32N 52°02' E 001°10'0 0.0
2016-Aug-18 21:26N 52°02' E 001°10'0 0.2
2016-Aug-18 20:33N 52°02' E 001°09'0 0.4
2016-Aug-18 19:31N 52°02' E 001°10'0 0.0
2016-Aug-18 18:31N 52°02' E 001°10'0 0.0
2016-Aug-18 17:31N 52°02' E 001°10'0 0.0
2016-Aug-18 16:31N 52°02' E 001°10'0 0.0
2016-Aug-18 15:28N 52°02' E 001°10'0 0.0
2016-Aug-18 14:31N 52°02' E 001°10'0 0.0
2016-Aug-18 13:31N 52°02' E 001°10'0 0.0
2016-Aug-18 12:31N 52°02' E 001°10'0 0.0
2016-Aug-18 11:31N 52°02' E 001°10'0 0.0
2016-Aug-18 10:31N 52°02' E 001°10'0 0.0
2016-Aug-18 09:31N 52°02' E 001°10'0 0.0
2016-Aug-18 08:28N 52°02' E 001°10'0 0.0
2016-Aug-18 07:31N 52°02' E 001°10'0 0.0
2016-Aug-18 06:31N 52°02' E 001°10'0 0.0
2016-Aug-18 05:31N 52°02' E 001°10'0 0.0
2016-Aug-18 04:28N 52°02' E 001°10'0 0.0
2016-Aug-18 03:31N 52°02' E 001°10'0 0.0
2016-Aug-18 02:31N 52°02' E 001°10'0 0.0
2016-Aug-18 01:31N 52°02' E 001°10'0 0.0
2016-Aug-18 00:31N 52°02' E 001°10'0 0.0
2016-Aug-17 23:28N 52°02' E 001°10'0 0.0
2016-Aug-17 22:31N 52°02' E 001°10'0 0.0
2016-Aug-17 21:31N 52°02' E 001°10'0 0.0
2016-Aug-17 20:25N 52°02' E 001°10'0 0.0
2016-Aug-17 19:31N 52°02' E 001°10'0 0.0
2016-Aug-17 18:31N 52°02' E 001°10'0 0.0
2016-Aug-17 17:31N 52°02' E 001°10'0 0.0
2016-Aug-17 16:31N 52°02' E 001°10'0 0.0
2016-Aug-17 15:31N 52°02' E 001°10'0 0.0
2016-Aug-17 14:31N 52°02' E 001°10'0 0.0
2016-Aug-17 13:31N 52°02' E 001°10'0 0.0
2016-Aug-17 12:31N 52°02' E 001°10'0 0.0
2016-Aug-17 11:31N 52°02' E 001°10'0 0.0
2016-Aug-17 10:31N 52°02' E 001°10'0 0.0
2016-Aug-17 09:31N 52°02' E 001°10'0 0.0
2016-Aug-17 08:31N 52°02' E 001°10'0 0.0
2016-Aug-17 07:31N 52°02' E 001°10'0 0.0
2016-Aug-17 06:31N 52°02' E 001°10'0 0.0
2016-Aug-17 05:31N 52°02' E 001°10'0 0.0
2016-Aug-17 04:28N 52°02' E 001°10'0 0.0
2016-Aug-17 03:31N 52°02' E 001°10'0 0.0
2016-Aug-17 02:31N 52°02' E 001°10'0 0.0
2016-Aug-17 01:28N 52°02' E 001°10'0 0.0
2016-Aug-17 00:31N 52°02' E 001°10'0 0.0
2016-Aug-16 23:31N 52°02' E 001°10'0 0.0
2016-Aug-16 22:31N 52°02' E 001°10'0 0.0
2016-Aug-16 21:31N 52°02' E 001°10'0 0.0
2016-Aug-16 20:31N 52°02' E 001°10'0 0.0
2016-Aug-16 19:31N 52°02' E 001°10'0 0.0
2016-Aug-16 18:31N 52°02' E 001°10'0 0.0
2016-Aug-16 17:31N 52°02' E 001°10'0 0.0
2016-Aug-16 16:31N 52°02' E 001°10'0 0.0
2016-Aug-16 15:31N 52°02' E 001°10'0 0.0
2016-Aug-16 14:31N 52°02' E 001°10'0 0.0
2016-Aug-16 13:31N 52°02' E 001°10'0 0.0
2016-Aug-16 12:31N 52°02' E 001°10'0 0.0
2016-Aug-16 11:31N 52°02' E 001°10'0 0.0
2016-Aug-16 10:31N 52°02' E 001°10'0 0.0
2016-Aug-16 09:31N 52°02' E 001°10'0 0.0
2016-Aug-16 08:31N 52°02' E 001°10'0 0.0
2016-Aug-16 07:31N 52°02' E 001°10'0 0.0
2016-Aug-16 04:31N 52°02' E 001°10'0 0.0
2016-Aug-16 03:31N 52°02' E 001°10'0 0.0
2016-Aug-16 02:31N 52°02' E 001°10'0 0.0
2016-Aug-16 01:31N 52°02' E 001°10'0 0.0
2016-Aug-16 00:31N 52°02' E 001°10'0 0.0
2016-Aug-15 23:31N 52°02' E 001°10'0 0.0
2016-Aug-15 22:31N 52°02' E 001°10'0 0.0
2016-Aug-15 21:31N 52°02' E 001°10'0 0.0
2016-Aug-15 20:31N 52°02' E 001°10'0 0.0
2016-Aug-15 19:31N 52°02' E 001°10'0 0.0
2016-Aug-15 18:31N 52°02' E 001°10'0 0.0
2016-Aug-15 17:31N 52°02' E 001°10'0 0.0
2016-Aug-15 16:31N 52°02' E 001°10'0 0.0
2016-Aug-15 15:31N 52°02' E 001°10'0 0.0
2016-Aug-15 14:31N 52°02' E 001°10'0 0.0
2016-Aug-15 13:31N 52°02' E 001°10'0 0.0
2016-Aug-15 12:31N 52°02' E 001°10'0 0.0
2016-Aug-15 11:25N 52°02' E 001°10'0 0.0
2016-Aug-15 10:31N 52°02' E 001°10'0 0.0
2016-Aug-15 09:31N 52°02' E 001°10'0 0.0
2016-Aug-15 08:31N 52°02' E 001°10'0 0.0
2016-Aug-15 07:31N 52°02' E 001°10'0 0.0
2016-Aug-15 06:31N 52°02' E 001°10'0 0.0
2016-Aug-15 04:31N 52°02' E 001°10'0 0.0
2016-Aug-15 03:31N 52°02' E 001°10'0 0.0
2016-Aug-15 02:31N 52°02' E 001°10'0 0.0
2016-Aug-15 01:31N 52°02' E 001°10'0 0.0
2016-Aug-15 00:31N 52°02' E 001°10'  
Track history (hours):
 
Tides and Currents Weather Stations Pressure Air Temp Water Temp Dewpoint Dewpoint Depression Visibility Wind Speed Wind Dir Waves Ship Positions

Arklow Mill

Last reported at 2016-Aug-24 23:33 UTC. Time now 2016-Aug-25 11:29 UTC.
Position N 36°02' W 005°12'.

Length 137 m; draft 8.4 m.

Type: Ship. MMSI: 250002022.

Date/timePositionNaut miles runAvg speedWind from/ knotsBaromVisibWave heightAir tempDewpointWater temp
2016-Aug-24 23:33N 36°02' W 005°12'1010.3
2016-Aug-24 22:34N 35°58' W 005°24'20711.5
2016-Aug-24 04:32N 36°49' W 009°33'1312.8
2016-Aug-24 03:33N 37°02' W 009°37'1313.3
2016-Aug-24 02:34N 37°14' W 009°39'1413.6
2016-Aug-24 01:34N 37°28' W 009°43'1413.7
2016-Aug-24 00:33N 37°41' W 009°47'1313.3
2016-Aug-23 23:34N 37°54' W 009°51'1413.4
2016-Aug-23 22:33N 38°07' W 009°55'1313.3
2016-Aug-23 21:33N 38°20' W 009°58'1413.8
2016-Aug-23 20:33N 38°33' W 010°03'1313.3
2016-Aug-23 19:33N 38°47' W 010°05'1413.9
2016-Aug-23 18:33N 39°00' W 010°05'1513.4
2016-Aug-23 17:25N 39°16' W 010°06'1213.7
2016-Aug-23 16:33N 39°27' W 010°05'14813.4
2016-Aug-23 05:31N 41°56' W 010°07'12213.1
2016-Aug-22 20:17N 43°55' W 009°39'30312.2
2016-Aug-21 19:33N 48°23' W 006°14'1110.1
2016-Aug-21 18:29N 48°32' W 006°06'11 8.9
2016-Aug-21 17:17N 48°42' W 005°59'9 8.8
2016-Aug-21 16:16N 48°50' W 005°53'6 8.9
2016-Aug-21 15:32N 48°55' W 005°48'1410.3
2016-Aug-21 14:11N 49°01' W 005°29'811.6
2016-Aug-21 13:31N 49°05' W 005°18'7110.1
2016-Aug-21 06:30N 49°41' W 003°45'8 8.6
2016-Aug-21 05:33N 49°45' W 003°34'9 9.5
2016-Aug-21 04:33N 49°50' W 003°22'1110.9
2016-Aug-21 03:33N 49°56' W 003°07'1211.9
2016-Aug-21 02:33N 49°60' W 002°50'94 8.3
2016-Aug-20 15:18N 50°25' W 000°29'911.7
2016-Aug-20 14:33N 50°28' W 000°16'1110.8
2016-Aug-20 13:33N 50°32' E 000°01'10 9.7
2016-Aug-20 12:31N 50°35' E 000°16'9 8.8
2016-Aug-20 11:33N 50°37' E 000°29'28 9.3
2016-Aug-20 08:31N 50°53' E 001°06'1212.5
2016-Aug-20 07:33N 51°01' E 001°20'1212.5
2016-Aug-20 06:33N 51°09' E 001°35'1111.5
2016-Aug-20 05:33N 51°20' E 001°41'9 9.3
2016-Aug-20 04:33N 51°29' E 001°44'9 9.0
2016-Aug-20 03:34N 51°38' E 001°45'9 8.9
2016-Aug-20 02:33N 51°47' E 001°43'9 9.2
2016-Aug-20 01:33N 51°54' E 001°34'9 9.2
2016-Aug-20 00:33N 51°56' E 001°19'7 6.9
2016-Aug-19 23:33N 52°01' E 001°11'2 2.2
2016-Aug-19 22:33N 52°03' E 001°10'0 0.0
2016-Aug-19 21:32N 52°03' E 001°10'0 0.0
2016-Aug-19 20:32N 52°03' E 001°10'0 0.0
2016-Aug-19 19:32N 52°03' E 001°10'0 0.0
2016-Aug-19 18:32N 52°03' E 001°10'0 0.0
2016-Aug-19 17:29N 52°03' E 001°10'0 0.0
2016-Aug-19 16:32N 52°03' E 001°10'0 0.0
2016-Aug-19 15:32N 52°02' E 001°10'0 0.0
2016-Aug-19 14:32N 52°02' E 001°10'0 0.0
2016-Aug-19 13:32N 52°02' E 001°10'0 0.0
2016-Aug-19 12:32N 52°02' E 001°10'0 0.0
2016-Aug-19 11:29N 52°02' E 001°10'0 0.0
2016-Aug-19 10:32N 52°02' E 001°10'0 0.0
2016-Aug-19 09:32N 52°02' E 001°10'0 0.0
2016-Aug-19 08:29N 52°02' E 001°10'0 0.0
2016-Aug-19 07:29N 52°02' E 001°10'0 0.0
2016-Aug-19 06:32N 52°02' E 001°10'0 0.0
2016-Aug-19 05:29N 52°02' E 001°10'0 0.0
2016-Aug-19 04:26N 52°02' E 001°10'0 0.0
2016-Aug-19 03:26N 52°02' E 001°10'0 0.0
2016-Aug-19 02:29N 52°02' E 001°10'0 0.0
2016-Aug-19 01:29N 52°02' E 001°10'0 0.0
2016-Aug-19 00:32N 52°02' E 001°10'0 0.0
2016-Aug-18 23:26N 52°02' E 001°10'0 0.0
2016-Aug-18 22:32N 52°02' E 001°10'0 0.0
2016-Aug-18 21:26N 52°02' E 001°10'0 0.2
2016-Aug-18 20:33N 52°02' E 001°09'0 0.4
2016-Aug-18 19:31N 52°02' E 001°10'0 0.0
2016-Aug-18 18:31N 52°02' E 001°10'0 0.0
2016-Aug-18 17:31N 52°02' E 001°10'0 0.0
2016-Aug-18 16:31N 52°02' E 001°10'0 0.0
2016-Aug-18 15:28N 52°02' E 001°10'0 0.0
2016-Aug-18 14:31N 52°02' E 001°10'0 0.0
2016-Aug-18 13:31N 52°02' E 001°10'0 0.0
2016-Aug-18 12:31N 52°02' E 001°10'0 0.0
2016-Aug-18 11:31N 52°02' E 001°10'0 0.0
2016-Aug-18 10:31N 52°02' E 001°10'0 0.0
2016-Aug-18 09:31N 52°02' E 001°10'0 0.0
2016-Aug-18 08:28N 52°02' E 001°10'0 0.0
2016-Aug-18 07:31N 52°02' E 001°10'0 0.0
2016-Aug-18 06:31N 52°02' E 001°10'0 0.0
2016-Aug-18 05:31N 52°02' E 001°10'0 0.0
2016-Aug-18 04:28N 52°02' E 001°10'0 0.0
2016-Aug-18 03:31N 52°02' E 001°10'0 0.0
2016-Aug-18 02:31N 52°02' E 001°10'0 0.0
2016-Aug-18 01:31N 52°02' E 001°10'0 0.0
2016-Aug-18 00:31N 52°02' E 001°10'0 0.0
2016-Aug-17 23:28N 52°02' E 001°10'0 0.0
2016-Aug-17 22:31N 52°02' E 001°10'0 0.0
2016-Aug-17 21:31N 52°02' E 001°10'0 0.0
2016-Aug-17 20:25N 52°02' E 001°10'0 0.0
2016-Aug-17 19:31N 52°02' E 001°10'0 0.0
2016-Aug-17 18:31N 52°02' E 001°10'0 0.0
2016-Aug-17 17:31N 52°02' E 001°10'0 0.0
2016-Aug-17 16:31N 52°02' E 001°10'0 0.0
2016-Aug-17 15:31N 52°02' E 001°10'0 0.0
2016-Aug-17 14:31N 52°02' E 001°10'0 0.0
2016-Aug-17 13:31N 52°02' E 001°10'0 0.0
2016-Aug-17 12:31N 52°02' E 001°10'0 0.0
2016-Aug-17 11:31N 52°02' E 001°10'0 0.0
2016-Aug-17 10:31N 52°02' E 001°10'0 0.0
2016-Aug-17 09:31N 52°02' E 001°10'0 0.0
2016-Aug-17 08:31N 52°02' E 001°10'0 0.0
2016-Aug-17 07:31N 52°02' E 001°10'0 0.0
2016-Aug-17 06:31N 52°02' E 001°10'0 0.0
2016-Aug-17 05:31N 52°02' E 001°10'0 0.0
2016-Aug-17 04:28N 52°02' E 001°10'0 0.0
2016-Aug-17 03:31N 52°02' E 001°10'0 0.0
2016-Aug-17 02:31N 52°02' E 001°10'0 0.0
2016-Aug-17 01:28N 52°02' E 001°10'0 0.0
2016-Aug-17 00:31N 52°02' E 001°10'0 0.0
2016-Aug-16 23:31N 52°02' E 001°10'0 0.0
2016-Aug-16 22:31N 52°02' E 001°10'0 0.0
2016-Aug-16 21:31N 52°02' E 001°10'0 0.0
2016-Aug-16 20:31N 52°02' E 001°10'0 0.0
2016-Aug-16 19:31N 52°02' E 001°10'0 0.0
2016-Aug-16 18:31N 52°02' E 001°10'0 0.0
2016-Aug-16 17:31N 52°02' E 001°10'0 0.0
2016-Aug-16 16:31N 52°02' E 001°10'0 0.0
2016-Aug-16 15:31N 52°02' E 001°10'0 0.0
2016-Aug-16 14:31N 52°02' E 001°10'0 0.0
2016-Aug-16 13:31N 52°02' E 001°10'0 0.0
2016-Aug-16 12:31N 52°02' E 001°10'0 0.0
2016-Aug-16 11:31N 52°02' E 001°10'0 0.0
2016-Aug-16 10:31N 52°02' E 001°10'0 0.0
2016-Aug-16 09:31N 52°02' E 001°10'0 0.0
2016-Aug-16 08:31N 52°02' E 001°10'0 0.0
2016-Aug-16 07:31N 52°02' E 001°10'0 0.0
2016-Aug-16 04:31N 52°02' E 001°10'0 0.0
2016-Aug-16 03:31N 52°02' E 001°10'0 0.0
2016-Aug-16 02:31N 52°02' E 001°10'0 0.0
2016-Aug-16 01:31N 52°02' E 001°10'0 0.0
2016-Aug-16 00:31N 52°02' E 001°10'0 0.0
2016-Aug-15 23:31N 52°02' E 001°10'0 0.0
2016-Aug-15 22:31N 52°02' E 001°10'0 0.0
2016-Aug-15 21:31N 52°02' E 001°10'0 0.0
2016-Aug-15 20:31N 52°02' E 001°10'0 0.0
2016-Aug-15 19:31N 52°02' E 001°10'0 0.0
2016-Aug-15 18:31N 52°02' E 001°10'0 0.0
2016-Aug-15 17:31N 52°02' E 001°10'0 0.0
2016-Aug-15 16:31N 52°02' E 001°10'0 0.0
2016-Aug-15 15:31N 52°02' E 001°10'0 0.0
2016-Aug-15 14:31N 52°02' E 001°10'0 0.0
2016-Aug-15 13:31N 52°02' E 001°10'0 0.0
2016-Aug-15 12:31N 52°02' E 001°10'0 0.0
2016-Aug-15 11:25N 52°02' E 001°10'0 0.0
2016-Aug-15 10:31N 52°02' E 001°10'0 0.0
2016-Aug-15 09:31N 52°02' E 001°10'0 0.0
2016-Aug-15 08:31N 52°02' E 001°10'0 0.0
2016-Aug-15 07:31N 52°02' E 001°10'0 0.0
2016-Aug-15 06:31N 52°02' E 001°10'0 0.0
2016-Aug-15 04:31N 52°02' E 001°10'0 0.0
2016-Aug-15 03:31N 52°02' E 001°10'0 0.0
2016-Aug-15 02:31N 52°02' E 001°10'0 0.0
2016-Aug-15 01:31N 52°02' E 001°10'0 0.0
2016-Aug-15 00:31N 52°02' E 001°10'  

Dump ship's entire track history